TimeMDT,TemperatureF,Dew PointF,Humidity,Sea Level PressureIn,VisibilityMPH,Wind Direction,Wind SpeedMPH,Gust SpeedMPH,PrecipitationIn,Events,Conditions,WindDirDegrees,DateUTC
12:15 AM,51.4,30.0,44,29.91,10.0,NE,11.5,-,N/A,,Overcast,40,2013-03-16 06:15:00
12:35 AM,51.1,30.9,46,29.93,10.0,NE,13.8,20.7,N/A,,Overcast,50,2013-03-16 06:35:00
12:55 AM,50.4,31.1,48,29.92,10.0,ENE,19.6,25.3,N/A,,Overcast,60,2013-03-16 06:55:00
1:15 AM,49.5,30.9,49,29.92,10.0,ENE,18.4,21.9,N/A,,Overcast,60,2013-03-16 07:15:00
1:35 AM,48.0,31.8,54,29.95,10.0,NNE,19.6,26.5,N/A,,Overcast,30,2013-03-16 07:35:00
1:55 AM,47.1,31.6,55,29.97,10.0,ENE,10.4,23.0,N/A,,Overcast,60,2013-03-16 07:55:00
2:15 AM,46.2,31.8,57,29.98,10.0,NNE,17.3,27.6,N/A,,Overcast,30,2013-03-16 08:15:00
2:35 AM,45.9,31.1,56,29.98,10.0,ENE,21.9,28.8,N/A,,Overcast,60,2013-03-16 08:35:00
2:55 AM,44.8,31.1,59,29.97,10.0,ENE,21.9,26.5,N/A,,Overcast,60,2013-03-16 08:55:00
3:15 AM,44.4,30.7,59,29.98,10.0,ENE,17.3,-,N/A,,Overcast,60,2013-03-16 09:15:00
3:35 AM,43.7,30.2,59,30.00,10.0,NE,19.6,24.2,N/A,,Overcast,50,2013-03-16 09:35:00
3:55 AM,43.2,30.2,60,29.99,10.0,East,20.7,25.3,N/A,,Overcast,80,2013-03-16 09:55:00
4:35 AM,41.5,30.2,64,29.98,10.0,East,17.3,-,N/A,,Mostly Cloudy,90,2013-03-16 10:35:00
4:55 AM,41.0,30.2,65,29.99,10.0,East,11.5,-,N/A,,Mostly Cloudy,80,2013-03-16 10:55:00
5:15 AM,40.1,30.7,69,30.00,10.0,ENE,10.4,-,N/A,,Overcast,60,2013-03-16 11:15:00
5:35 AM,38.7,30.6,73,30.00,10.0,East,12.7,-,N/A,,Mostly Cloudy,90,2013-03-16 11:35:00
5:55 AM,36.9,30.2,77,30.01,10.0,ENE,9.2,-,N/A,,Scattered Clouds,60,2013-03-16 11:55:00
6:15 AM,35.4,29.8,80,30.01,10.0,NE,9.2,-,N/A,,Clear,50,2013-03-16 12:15:00
6:35 AM,34.7,29.5,81,30.02,10.0,NNE,6.9,-,N/A,,Clear,20,2013-03-16 12:35:00
6:55 AM,35.1,29.8,81,30.02,10.0,Calm,Calm,-,N/A,,Clear,0,2013-03-16 12:55:00
7:15 AM,35.8,30.2,80,30.02,10.0,Calm,Calm,-,N/A,,Clear,0,2013-03-16 13:15:00
7:35 AM,34.7,29.7,82,30.02,10.0,NE,3.5,-,N/A,,Clear,40,2013-03-16 13:35:00
7:55 AM,35.2,30.2,82,30.03,10.0,NNE,3.5,-,N/A,,Clear,20,2013-03-16 13:55:00
8:15 AM,38.8,32.0,76,30.03,10.0,Calm,Calm,-,N/A,,Clear,0,2013-03-16 14:15:00
8:35 AM,39.9,30.6,69,30.04,10.0,Calm,Calm,-,N/A,,Clear,0,2013-03-16 14:35:00
8:55 AM,40.5,30.0,66,30.05,10.0,Calm,Calm,-,N/A,,Clear,0,2013-03-16 14:55:00
9:15 AM,41.2,30.4,65,30.05,10.0,SSW,3.5,-,N/A,,Clear,210,2013-03-16 15:15:00
9:35 AM,41.9,30.0,63,30.04,10.0,SSE,4.6,-,N/A,,Clear,160,2013-03-16 15:35:00
9:55 AM,43.0,30.0,60,30.04,10.0,SSE,5.8,-,N/A,,Clear,150,2013-03-16 15:55:00
10:15 AM,43.7,30.4,59,30.03,10.0,SSE,5.8,-,N/A,,Clear,150,2013-03-16 16:15:00
10:35 AM,44.6,30.2,57,30.04,10.0,SSE,4.6,-,N/A,,Scattered Clouds,150,2013-03-16 16:35:00
10:55 AM,45.5,30.2,55,30.03,10.0,South,3.5,-,N/A,,Scattered Clouds,170,2013-03-16 16:55:00
11:15 AM,46.9,29.8,51,30.02,10.0,SE,9.2,-,N/A,,Scattered Clouds,140,2013-03-16 17:15:00
11:35 AM,48.2,29.3,48,30.02,10.0,South,13.8,-,N/A,,Scattered Clouds,170,2013-03-16 17:35:00
11:55 AM,47.5,29.3,49,30.01,10.0,SSE,11.5,17.3,N/A,,Mostly Cloudy,160,2013-03-16 17:55:00
12:15 PM,47.3,29.3,50,30.00,10.0,SSE,11.5,-,N/A,,Overcast,150,2013-03-16 18:15:00
12:35 PM,47.5,29.5,50,29.99,10.0,SE,11.5,-,N/A,,Overcast,140,2013-03-16 18:35:00
12:55 PM,47.8,29.1,48,29.98,10.0,SSE,11.5,-,N/A,,Overcast,150,2013-03-16 18:55:00
1:15 PM,48.4,28.8,47,29.96,10.0,ESE,11.5,-,N/A,,Overcast,120,2013-03-16 19:15:00
1:35 PM,48.6,29.1,47,29.93,10.0,SE,17.3,23.0,N/A,,Overcast,140,2013-03-16 19:35:00
1:55 PM,48.6,29.5,48,29.92,10.0,SE,16.1,25.3,N/A,,Overcast,140,2013-03-16 19:55:00
2:15 PM,50.4,29.8,45,29.89,10.0,SE,19.6,-,N/A,,Overcast,140,2013-03-16 20:15:00
2:35 PM,50.0,29.7,46,29.88,10.0,SE,17.3,-,N/A,,Overcast,140,2013-03-16 20:35:00
2:55 PM,50.2,30.0,46,29.87,10.0,SSE,18.4,23.0,N/A,,Overcast,150,2013-03-16 20:55:00
3:15 PM,51.1,29.1,43,29.85,10.0,SE,24.2,31.1,N/A,,Scattered Clouds,140,2013-03-16 21:15:00
3:35 PM,51.3,28.4,41,29.85,10.0,SE,19.6,25.3,N/A,,Clear,140,2013-03-16 21:35:00
3:55 PM,52.3,30.4,43,29.85,10.0,SSE,18.4,24.2,N/A,,Scattered Clouds,150,2013-03-16 21:55:00
4:15 PM,52.7,30.6,43,29.85,10.0,SSE,19.6,23.0,N/A,,Mostly Cloudy,160,2013-03-16 22:15:00
4:35 PM,52.0,30.6,44,29.85,10.0,SSE,17.3,-,N/A,,Overcast,150,2013-03-16 22:35:00
4:55 PM,52.0,30.7,44,29.86,10.0,SSE,15.0,18.4,N/A,,Overcast,150,2013-03-16 22:55:00
5:15 PM,51.8,30.6,44,29.87,10.0,SSE,11.5,-,N/A,,Overcast,160,2013-03-16 23:15:00
5:35 PM,51.3,31.5,47,29.88,10.0,South,16.1,20.7,N/A,Rain,Light Rain,180,2013-03-16 23:35:00
5:55 PM,50.4,33.8,53,29.85,10.0,SSE,11.5,17.3,N/A,,Drizzle,150,2013-03-16 23:55:00
6:15 PM,49.6,34.0,55,29.84,10.0,SSE,12.7,-,N/A,,Scattered Clouds,150,2013-03-17 00:15:00
6:35 PM,49.1,33.8,56,29.83,10.0,SE,12.7,-,N/A,,Clear,140,2013-03-17 00:35:00
6:55 PM,47.8,33.6,58,29.84,10.0,ESE,11.5,-,N/A,,Clear,120,2013-03-17 00:55:00
7:15 PM,46.4,33.4,61,29.84,10.0,ESE,10.4,-,N/A,,Clear,120,2013-03-17 01:15:00
7:35 PM,46.0,33.3,61,29.84,10.0,SE,9.2,-,N/A,,Scattered Clouds,130,2013-03-17 01:35:00
7:55 PM,45.9,33.4,62,29.84,10.0,SE,12.7,-,N/A,,Scattered Clouds,140,2013-03-17 01:55:00
8:15 PM,45.5,33.8,64,29.85,10.0,SE,13.8,-,N/A,,Mostly Cloudy,130,2013-03-17 02:15:00
8:35 PM,42.8,33.6,70,29.84,10.0,SSE,13.8,-,N/A,,Mostly Cloudy,150,2013-03-17 02:35:00
8:55 PM,41.4,33.1,72,29.84,10.0,SSE,16.1,-,N/A,,Scattered Clouds,150,2013-03-17 02:55:00
9:15 PM,40.8,32.4,72,29.84,10.0,SSE,15.0,-,N/A,,Clear,150,2013-03-17 03:15:00
9:35 PM,40.8,32.2,71,29.84,10.0,SSE,13.8,-,N/A,,Clear,160,2013-03-17 03:35:00
9:55 PM,39.6,32.2,75,29.84,10.0,SSE,12.7,-,N/A,,Clear,160,2013-03-17 03:55:00
10:15 PM,39.2,32.2,76,29.84,10.0,South,8.1,-,N/A,,Clear,170,2013-03-17 04:15:00
10:35 PM,39.9,32.7,75,29.84,10.0,South,4.6,-,N/A,,Clear,190,2013-03-17 04:35:00
10:55 PM,39.2,32.5,77,29.83,10.0,South,6.9,-,N/A,,Clear,180,2013-03-17 04:55:00
11:15 PM,38.3,32.4,79,29.82,10.0,South,10.4,-,N/A,,Clear,170,2013-03-17 05:15:00
11:35 PM,36.1,32.0,85,29.83,10.0,South,8.1,-,N/A,,Clear,180,2013-03-17 05:35:00
11:55 PM,36.3,31.8,84,29.82,10.0,South,6.9,-,N/A,,Clear,180,2013-03-17 05:55:00